sensor_id;sensor_type;location;lat;lon;timestamp;pressure;altitude;pressure_sealevel;temperature;humidity
59043;BME280;44826;51.596;5.624;2022-08-02T00:01:37;101778.75;;;14.45;67.85
59043;BME280;44826;51.596;5.624;2022-08-02T00:04:02;101778.75;;;14.45;69.07
59043;BME280;44826;51.596;5.624;2022-08-02T00:06:27;101779.53;;;14.49;68.52
59043;BME280;44826;51.596;5.624;2022-08-02T00:08:53;101775.19;;;14.48;68.36
59043;BME280;44826;51.596;5.624;2022-08-02T00:11:18;101774.47;;;14.42;68.33
59043;BME280;44826;51.596;5.624;2022-08-02T00:13:44;101774.63;;;14.36;68.83
59043;BME280;44826;51.596;5.624;2022-08-02T00:16:09;101773.81;;;14.34;68.65
59043;BME280;44826;51.596;5.624;2022-08-02T00:18:35;101784.38;;;14.31;69.29
59043;BME280;44826;51.596;5.624;2022-08-02T00:21:00;101780.84;;;14.32;70.06
59043;BME280;44826;51.596;5.624;2022-08-02T00:23:25;101773.81;;;14.34;68.91
59043;BME280;44826;51.596;5.624;2022-08-02T00:25:51;101776.47;;;14.33;68.27
59043;BME280;44826;51.596;5.624;2022-08-02T00:28:16;101784.44;;;14.28;68.62
59043;BME280;44826;51.596;5.624;2022-08-02T00:30:41;101782.81;;;14.24;69.49
59043;BME280;44826;51.596;5.624;2022-08-02T00:33:06;101781.06;;;14.24;68.25
59043;BME280;44826;51.596;5.624;2022-08-02T00:35:33;101785.41;;;14.24;67.01
59043;BME280;44826;51.596;5.624;2022-08-02T00:37:58;101780.09;;;14.27;68.43
59043;BME280;44826;51.596;5.624;2022-08-02T00:40:24;101771.44;;;14.25;68.15
59043;BME280;44826;51.596;5.624;2022-08-02T00:43:03;101777.56;;;14.24;68.95
59043;BME280;44826;51.596;5.624;2022-08-02T00:45:31;101776.59;;;14.28;69.01
59043;BME280;44826;51.596;5.624;2022-08-02T00:47:56;101774.72;;;14.33;65.03
59043;BME280;44826;51.596;5.624;2022-08-02T00:50:22;101768.47;;;14.39;65.77
59043;BME280;44826;51.596;5.624;2022-08-02T00:52:47;101765.78;;;14.40;66.89
59043;BME280;44826;51.596;5.624;2022-08-02T00:55:12;101764.25;;;14.33;69.46
59043;BME280;44826;51.596;5.624;2022-08-02T00:57:38;101761.66;;;14.32;67.52
59043;BME280;44826;51.596;5.624;2022-08-02T01:00:03;101752.97;;;14.30;65.81
59043;BME280;44826;51.596;5.624;2022-08-02T01:02:29;101746.91;;;14.29;65.77
59043;BME280;44826;51.596;5.624;2022-08-02T01:04:54;101753.84;;;14.30;65.10
59043;BME280;44826;51.596;5.624;2022-08-02T01:07:20;101762.53;;;14.32;64.11
59043;BME280;44826;51.596;5.624;2022-08-02T01:09:45;101752.88;;;14.34;64.14
59043;BME280;44826;51.596;5.624;2022-08-02T01:12:11;101743.13;;;14.39;63.68
59043;BME280;44826;51.596;5.624;2022-08-02T01:14:36;101744.75;;;14.44;63.45
59043;BME280;44826;51.596;5.624;2022-08-02T01:17:11;101738.56;;;14.46;63.83
59043;BME280;44826;51.596;5.624;2022-08-02T01:19:53;101738.63;;;14.45;63.80
59043;BME280;44826;51.596;5.624;2022-08-02T01:25:32;101745.66;;;14.42;65.48
59043;BME280;44826;51.596;5.624;2022-08-02T01:30:55;101755.53;;;14.33;66.60
59043;BME280;44826;51.596;5.624;2022-08-02T01:33:25;101753.81;;;14.32;66.73
59043;BME280;44826;51.596;5.624;2022-08-02T01:35:51;101748.53;;;14.33;66.71
59043;BME280;44826;51.596;5.624;2022-08-02T01:38:31;101747.66;;;14.34;67.71
59043;BME280;44826;51.596;5.624;2022-08-02T01:40:58;101739.94;;;14.28;66.90
59043;BME280;44826;51.596;5.624;2022-08-02T01:43:27;101748.78;;;14.24;66.65
59043;BME280;44826;51.596;5.624;2022-08-02T01:45:54;101740.97;;;14.22;67.65
59043;BME280;44826;51.596;5.624;2022-08-02T01:48:21;101735.75;;;14.21;68.62
59043;BME280;44826;51.596;5.624;2022-08-02T01:50:50;101731.41;;;14.21;65.86
59043;BME280;44826;51.596;5.624;2022-08-02T01:53:17;101733.97;;;14.23;67.44
59043;BME280;44826;51.596;5.624;2022-08-02T01:55:45;101733.00;;;14.27;66.28
59043;BME280;44826;51.596;5.624;2022-08-02T01:58:13;101734.72;;;14.28;65.29
59043;BME280;44826;51.596;5.624;2022-08-02T02:00:41;101723.28;;;14.31;65.02
59043;BME280;44826;51.596;5.624;2022-08-02T02:03:12;101720.53;;;14.35;65.04
59043;BME280;44826;51.596;5.624;2022-08-02T02:05:38;101718.81;;;14.36;65.94
59043;BME280;44826;51.596;5.624;2022-08-02T02:08:05;101725.88;;;14.32;66.78
59043;BME280;44826;51.596;5.624;2022-08-02T02:10:33;101726.88;;;14.26;67.37
59043;BME280;44826;51.596;5.624;2022-08-02T02:13:05;101727.84;;;14.24;67.48
59043;BME280;44826;51.596;5.624;2022-08-02T02:15:33;101727.84;;;14.24;67.97
59043;BME280;44826;51.596;5.624;2022-08-02T02:17:59;101718.19;;;14.26;67.75
59043;BME280;44826;51.596;5.624;2022-08-02T02:20:25;101722.44;;;14.30;67.18
59043;BME280;44826;51.596;5.624;2022-08-02T02:22:51;101713.69;;;14.31;66.65
59043;BME280;44826;51.596;5.624;2022-08-02T02:25:18;101703.22;;;14.31;66.44
59043;BME280;44826;51.596;5.624;2022-08-02T02:27:55;101703.16;;;14.33;66.22
59043;BME280;44826;51.596;5.624;2022-08-02T02:30:25;101702.41;;;14.29;66.39
59043;BME280;44826;51.596;5.624;2022-08-02T02:32:52;101704.25;;;14.25;67.68
59043;BME280;44826;51.596;5.624;2022-08-02T02:35:20;101697.38;;;14.21;66.76
59043;BME280;44826;51.596;5.624;2022-08-02T02:37:47;101689.66;;;14.17;66.95
59043;BME280;44826;51.596;5.624;2022-08-02T02:40:14;101683.63;;;14.13;66.49
59043;BME280;44826;51.596;5.624;2022-08-02T02:42:41;101675.84;;;14.11;65.98
59043;BME280;44826;51.596;5.624;2022-08-02T02:45:08;101681.91;;;14.12;65.40
59043;BME280;44826;51.596;5.624;2022-08-02T02:47:34;101689.75;;;14.14;65.06
59043;BME280;44826;51.596;5.624;2022-08-02T02:50:01;101690.56;;;14.16;65.00
59043;BME280;44826;51.596;5.624;2022-08-02T02:52:27;101692.22;;;14.18;65.24
59043;BME280;44826;51.596;5.624;2022-08-02T02:54:54;101686.94;;;14.20;65.07
59043;BME280;44826;51.596;5.624;2022-08-02T02:57:21;101691.28;;;14.21;65.13
59043;BME280;44826;51.596;5.624;2022-08-02T02:59:46;101692.22;;;14.18;65.67
59043;BME280;44826;51.596;5.624;2022-08-02T03:02:12;101691.47;;;14.15;65.73
59043;BME280;44826;51.596;5.624;2022-08-02T03:04:40;101688.03;;;14.11;66.01
59043;BME280;44826;51.596;5.624;2022-08-02T03:07:06;101691.75;;;14.04;67.04
59043;BME280;44826;51.596;5.624;2022-08-02T03:09:31;101687.56;;;13.96;68.50
59043;BME280;44826;51.596;5.624;2022-08-02T03:11:57;101680.66;;;13.94;67.67
59043;BME280;44826;51.596;5.624;2022-08-02T03:14:22;101676.41;;;13.90;69.04
59043;BME280;44826;51.596;5.624;2022-08-02T03:16:51;101682.72;;;13.81;69.01
59043;BME280;44826;51.596;5.624;2022-08-02T03:19:18;101680.31;;;13.73;69.28
59043;BME280;44826;51.596;5.624;2022-08-02T03:21:45;101680.38;;;13.70;70.26
59043;BME280;44826;51.596;5.624;2022-08-02T03:24:11;101681.34;;;13.68;70.22
59043;BME280;44826;51.596;5.624;2022-08-02T03:26:37;101679.75;;;13.62;70.65
59043;BME280;44826;51.596;5.624;2022-08-02T03:29:03;101680.72;;;13.58;71.37
59043;BME280;44826;51.596;5.624;2022-08-02T03:31:28;101687.72;;;13.56;71.46
59043;BME280;44826;51.596;5.624;2022-08-02T03:33:55;101691.22;;;13.55;71.55
59043;BME280;44826;51.596;5.624;2022-08-02T03:36:22;101691.22;;;13.56;71.36
59043;BME280;44826;51.596;5.624;2022-08-02T03:38:48;101687.59;;;13.62;70.35
59043;BME280;44826;51.596;5.624;2022-08-02T03:41:16;101676.94;;;13.68;70.05
59043;BME280;44826;51.596;5.624;2022-08-02T03:43:43;101669.84;;;13.73;69.47
59043;BME280;44826;51.596;5.624;2022-08-02T03:46:11;101671.44;;;13.80;69.11
59043;BME280;44826;51.596;5.624;2022-08-02T03:48:37;101665.94;;;13.90;68.40
59043;BME280;44826;51.596;5.624;2022-08-02T03:51:03;101657.94;;;13.96;68.30
59043;BME280;44826;51.596;5.624;2022-08-02T03:53:29;101660.50;;;13.98;68.35
59043;BME280;44826;51.596;5.624;2022-08-02T03:55:55;101669.16;;;14.00;67.99
59043;BME280;44826;51.596;5.624;2022-08-02T03:58:22;101665.59;;;14.02;68.24
59043;BME280;44826;51.596;5.624;2022-08-02T04:00:48;101671.66;;;14.04;68.20
59043;BME280;44826;51.596;5.624;2022-08-02T04:03:14;101670.84;;;14.02;68.12
59043;BME280;44826;51.596;5.624;2022-08-02T04:05:40;101671.03;;;13.96;68.60
59043;BME280;44826;51.596;5.624;2022-08-02T04:08:05;101665.94;;;13.90;68.40
59043;BME280;44826;51.596;5.624;2022-08-02T04:10:30;101666.88;;;13.87;68.70
59043;BME280;44826;51.596;5.624;2022-08-02T04:12:56;101663.47;;;13.84;68.73
59043;BME280;44826;51.596;5.624;2022-08-02T04:15:22;101660.84;;;13.84;69.00
59043;BME280;44826;51.596;5.624;2022-08-02T04:17:53;101660.84;;;13.85;69.12
59043;BME280;44826;51.596;5.624;2022-08-02T04:20:24;101660.84;;;13.85;69.21
59043;BME280;44826;51.596;5.624;2022-08-02T04:22:59;101665.13;;;13.88;68.61
59043;BME280;44826;51.596;5.624;2022-08-02T04:25:25;101663.31;;;13.91;69.13
59043;BME280;44826;51.596;5.624;2022-08-02T04:27:51;101658.00;;;13.93;69.36
59043;BME280;44826;51.596;5.624;2022-08-02T04:30:16;101661.47;;;13.95;69.30
59043;BME280;44826;51.596;5.624;2022-08-02T04:32:43;101660.56;;;13.96;68.94
59043;BME280;44826;51.596;5.624;2022-08-02T04:35:09;101664.16;;;13.92;69.69
59043;BME280;44826;51.596;5.624;2022-08-02T04:37:37;101664.44;;;13.81;70.28
59043;BME280;44826;51.596;5.624;2022-08-02T04:40:07;101668.69;;;13.85;70.34
59043;BME280;44826;51.596;5.624;2022-08-02T04:42:33;101672.06;;;13.89;70.65
59043;BME280;44826;51.596;5.624;2022-08-02T04:44:58;101674.59;;;13.92;70.13
59043;BME280;44826;51.596;5.624;2022-08-02T04:47:24;101668.47;;;13.93;71.04
59043;BME280;44826;51.596;5.624;2022-08-02T04:49:49;101669.38;;;13.92;70.31
59043;BME280;44826;51.596;5.624;2022-08-02T04:52:14;101665.00;;;13.92;70.62
59043;BME280;44826;51.596;5.624;2022-08-02T04:54:39;101666.75;;;13.92;71.36
59043;BME280;44826;51.596;5.624;2022-08-02T04:57:05;101663.31;;;13.91;71.29
59043;BME280;44826;51.596;5.624;2022-08-02T04:59:50;101660.63;;;13.93;71.79
59043;BME280;44826;51.596;5.624;2022-08-02T05:02:15;101661.47;;;13.95;71.02
59043;BME280;44826;51.596;5.624;2022-08-02T05:04:41;101659.00;;;13.89;71.62
59043;BME280;44826;51.596;5.624;2022-08-02T05:07:06;101660.06;;;13.81;71.98
59043;BME280;44826;51.596;5.624;2022-08-02T05:09:31;101654.03;;;13.78;71.89
59043;BME280;44826;51.596;5.624;2022-08-02T05:11:56;101654.03;;;13.79;71.88
59043;BME280;44826;51.596;5.624;2022-08-02T05:14:22;101650.50;;;13.80;72.60
59043;BME280;44826;51.596;5.624;2022-08-02T05:16:47;101646.88;;;13.85;72.29
59043;BME280;44826;51.596;5.624;2022-08-02T05:19:12;101645.88;;;13.90;72.78
59043;BME280;44826;51.596;5.624;2022-08-02T05:21:37;101653.59;;;13.95;72.72
59043;BME280;44826;51.596;5.624;2022-08-02T05:24:03;101653.41;;;14.01;73.00
59043;BME280;44826;51.596;5.624;2022-08-02T05:26:28;101660.28;;;14.07;73.86
59043;BME280;44826;51.596;5.624;2022-08-02T05:28:54;101639.94;;;14.17;73.45
59043;BME280;44826;51.596;5.624;2022-08-02T05:31:19;101640.41;;;14.31;73.37
59043;BME280;44826;51.596;5.624;2022-08-02T05:33:44;101636.53;;;14.45;73.20
59043;BME280;44826;51.596;5.624;2022-08-02T05:36:10;101646.63;;;14.57;72.73
59043;BME280;44826;51.596;5.624;2022-08-02T05:38:35;101641.03;;;14.69;72.32
59043;BME280;44826;51.596;5.624;2022-08-02T05:41:01;101638.16;;;14.79;72.79
59043;BME280;44826;51.596;5.624;2022-08-02T05:43:26;101641.34;;;14.89;72.15
59043;BME280;44826;51.596;5.624;2022-08-02T05:45:51;101635.88;;;14.96;72.22
59043;BME280;44826;51.596;5.624;2022-08-02T05:48:17;101634.75;;;15.03;72.01
59043;BME280;44826;51.596;5.624;2022-08-02T05:50:44;101635.44;;;15.10;72.52
59043;BME280;44826;51.596;5.624;2022-08-02T05:53:40;101641.22;;;15.20;72.45
59043;BME280;44826;51.596;5.624;2022-08-02T05:56:23;101639.31;;;15.25;72.65
59043;BME280;44826;51.596;5.624;2022-08-02T05:58:56;101642.56;;;15.33;72.54
59043;BME280;44826;51.596;5.624;2022-08-02T06:01:34;101638.81;;;15.41;72.68
59043;BME280;44826;51.596;5.624;2022-08-02T06:04:10;101642.06;;;15.49;72.77
59043;BME280;44826;51.596;5.624;2022-08-02T06:06:43;101651.38;;;15.58;73.00
59043;BME280;44826;51.596;5.624;2022-08-02T06:09:14;101652.81;;;15.67;72.91
59043;BME280;44826;51.596;5.624;2022-08-02T06:11:44;101652.50;;;15.76;72.98
59043;BME280;44826;51.596;5.624;2022-08-02T06:14:10;101654.75;;;15.88;73.52
59043;BME280;44826;51.596;5.624;2022-08-02T06:16:38;101662.13;;;16.02;73.89
59043;BME280;44826;51.596;5.624;2022-08-02T06:19:04;101655.69;;;16.11;72.28
59043;BME280;44826;51.596;5.624;2022-08-02T06:21:30;101657.06;;;16.21;72.80
59043;BME280;44826;51.596;5.624;2022-08-02T06:23:56;101657.63;;;16.30;72.34
59043;BME280;44826;51.596;5.624;2022-08-02T06:26:23;101652.78;;;16.43;73.15
59043;BME280;44826;51.596;5.624;2022-08-02T06:28:51;101648.06;;;16.52;72.38
59043;BME280;44826;51.596;5.624;2022-08-02T06:31:16;101649.66;;;16.57;71.78
59043;BME280;44826;51.596;5.624;2022-08-02T06:33:42;101648.59;;;16.61;73.25
59043;BME280;44826;51.596;5.624;2022-08-02T06:36:15;101633.53;;;16.66;73.34
59043;BME280;44826;51.596;5.624;2022-08-02T06:38:51;101639.22;;;16.77;73.53
59043;BME280;44826;51.596;5.624;2022-08-02T06:41:19;101639.59;;;16.90;73.36
59043;BME280;44826;51.596;5.624;2022-08-02T06:43:58;101642.66;;;17.02;73.12
59043;BME280;44826;51.596;5.624;2022-08-02T06:46:24;101642.19;;;17.14;73.54
59043;BME280;44826;51.596;5.624;2022-08-02T06:48:49;101633.78;;;17.26;73.48
59043;BME280;44826;51.596;5.624;2022-08-02T06:51:15;101635.97;;;17.37;73.82
59043;BME280;44826;51.596;5.624;2022-08-02T06:53:41;101633.81;;;17.47;72.82
59043;BME280;44826;51.596;5.624;2022-08-02T06:56:06;101635.13;;;17.57;71.88
59043;BME280;44826;51.596;5.624;2022-08-02T06:58:31;101632.13;;;17.67;72.50
59043;BME280;44826;51.596;5.624;2022-08-02T07:00:57;101628.16;;;17.77;71.84
59043;BME280;44826;51.596;5.624;2022-08-02T07:03:22;101629.53;;;17.86;70.69
59043;BME280;44826;51.596;5.624;2022-08-02T07:05:50;101637.81;;;17.97;71.34
59043;BME280;44826;51.596;5.624;2022-08-02T07:08:16;101627.03;;;18.03;70.85
59043;BME280;44826;51.596;5.624;2022-08-02T07:10:42;101630.34;;;18.09;69.87
59043;BME280;44826;51.596;5.624;2022-08-02T07:13:07;101626.25;;;18.20;70.17
59043;BME280;44826;51.596;5.624;2022-08-02T07:15:33;101634.59;;;18.30;70.71
59043;BME280;44826;51.596;5.624;2022-08-02T07:17:58;101635.03;;;18.40;70.34
59043;BME280;44826;51.596;5.624;2022-08-02T07:20:23;101633.91;;;18.46;69.05
59043;BME280;44826;51.596;5.624;2022-08-02T07:22:49;101638.63;;;18.58;69.47
59043;BME280;44826;51.596;5.624;2022-08-02T07:25:14;101634.47;;;18.72;69.88
59043;BME280;44826;51.596;5.624;2022-08-02T07:27:39;101636.81;;;18.78;68.40
59043;BME280;44826;51.596;5.624;2022-08-02T07:30:05;101632.94;;;18.85;68.92
59043;BME280;44826;51.596;5.624;2022-08-02T07:32:31;101625.75;;;18.89;68.06
59043;BME280;44826;51.596;5.624;2022-08-02T07:34:57;101631.63;;;18.95;68.26
59043;BME280;44826;51.596;5.624;2022-08-02T07:37:25;101629.59;;;19.01;68.72
59043;BME280;44826;51.596;5.624;2022-08-02T07:39:50;101625.03;;;19.04;68.38
59043;BME280;44826;51.596;5.624;2022-08-02T07:42:16;101621.25;;;19.10;68.64
59043;BME280;44826;51.596;5.624;2022-08-02T07:44:41;101627.06;;;19.17;68.39
59043;BME280;44826;51.596;5.624;2022-08-02T07:47:06;101619.84;;;19.20;68.32
59043;BME280;44826;51.596;5.624;2022-08-02T07:49:31;101621.09;;;19.31;67.04
59043;BME280;44826;51.596;5.624;2022-08-02T07:51:57;101624.22;;;19.39;67.31
59043;BME280;44826;51.596;5.624;2022-08-02T07:54:22;101620.94;;;19.51;66.32
59043;BME280;44826;51.596;5.624;2022-08-02T07:56:48;101624.19;;;19.56;65.65
59043;BME280;44826;51.596;5.624;2022-08-02T07:59:14;101620.91;;;19.69;66.90
59043;BME280;44826;51.596;5.624;2022-08-02T08:01:39;101623.53;;;19.86;67.21
59043;BME280;44826;51.596;5.624;2022-08-02T08:04:05;101626.50;;;19.98;65.19
59043;BME280;44826;51.596;5.624;2022-08-02T08:06:30;101622.75;;;20.02;64.66
59043;BME280;44826;51.596;5.624;2022-08-02T08:08:56;101618.84;;;20.09;64.45
59043;BME280;44826;51.596;5.624;2022-08-02T08:11:21;101620.22;;;20.16;64.91
59043;BME280;44826;51.596;5.624;2022-08-02T08:13:47;101617.16;;;20.24;64.44
59043;BME280;44826;51.596;5.624;2022-08-02T08:16:12;101609.69;;;20.32;63.99
59043;BME280;44826;51.596;5.624;2022-08-02T08:18:37;101615.31;;;20.42;64.14
59043;BME280;44826;51.596;5.624;2022-08-02T08:21:03;101613.84;;;20.53;63.59
59043;BME280;44826;51.596;5.624;2022-08-02T08:23:28;101606.44;;;20.59;62.99
59043;BME280;44826;51.596;5.624;2022-08-02T08:25:54;101604.38;;;20.65;63.92
59043;BME280;44826;51.596;5.624;2022-08-02T08:28:19;101596.13;;;20.71;63.37
59043;BME280;44826;51.596;5.624;2022-08-02T08:30:44;101602.72;;;20.80;60.39
59043;BME280;44826;51.596;5.624;2022-08-02T08:33:11;101603.09;;;20.88;60.02
59043;BME280;44826;51.596;5.624;2022-08-02T08:35:38;101607.03;;;20.97;63.11
59043;BME280;44826;51.596;5.624;2022-08-02T08:38:03;101597.69;;;21.05;62.60
59043;BME280;44826;51.596;5.624;2022-08-02T08:40:30;101597.63;;;21.07;61.82
59043;BME280;44826;51.596;5.624;2022-08-02T08:42:55;101600.94;;;21.11;61.04
59043;BME280;44826;51.596;5.624;2022-08-02T08:45:20;101596.25;;;21.16;61.68
59043;BME280;44826;51.596;5.624;2022-08-02T08:47:50;101600.38;;;21.20;62.38
59043;BME280;44826;51.596;5.624;2022-08-02T08:50:24;101604.50;;;21.26;61.57
59043;BME280;44826;51.596;5.624;2022-08-02T08:53:08;101600.63;;;21.31;62.01
59043;BME280;44826;51.596;5.624;2022-08-02T08:55:35;101604.59;;;21.38;61.10
59043;BME280;44826;51.596;5.624;2022-08-02T08:58:02;101599.31;;;21.53;59.62
59043;BME280;44826;51.596;5.624;2022-08-02T09:00:33;101608.47;;;21.63;59.20
59043;BME280;44826;51.596;5.624;2022-08-02T09:03:03;101608.06;;;21.70;61.37
59043;BME280;44826;51.596;5.624;2022-08-02T09:05:29;101597.97;;;21.76;60.80
59043;BME280;44826;51.596;5.624;2022-08-02T09:07:54;101604.59;;;21.83;59.82
59043;BME280;44826;51.596;5.624;2022-08-02T09:13:08;101598.81;;;21.91;58.53
59043;BME280;44826;51.596;5.624;2022-08-02T09:15:36;101603.81;;;21.96;59.92
59043;BME280;44826;51.596;5.624;2022-08-02T09:18:03;101591.06;;;22.03;57.87
59043;BME280;44826;51.596;5.624;2022-08-02T09:20:29;101602.22;;;22.08;57.89
59043;BME280;44826;51.596;5.624;2022-08-02T09:23:08;101595.97;;;22.09;57.81
59043;BME280;44826;51.596;5.624;2022-08-02T09:25:34;101597.66;;;22.10;57.53
59043;BME280;44826;51.596;5.624;2022-08-02T09:28:02;101599.53;;;22.22;56.99
59043;BME280;44826;51.596;5.624;2022-08-02T09:30:27;101592.91;;;22.44;57.09
59043;BME280;44826;51.596;5.624;2022-08-02T09:32:52;101606.53;;;22.52;54.76
59043;BME280;44826;51.596;5.624;2022-08-02T09:35:50;101603.91;;;22.65;55.47
59043;BME280;44826;51.596;5.624;2022-08-02T09:38:23;101599.06;;;22.72;54.08
59043;BME280;44826;51.596;5.624;2022-08-02T09:40:48;101594.75;;;22.71;53.64
59043;BME280;44826;51.596;5.624;2022-08-02T09:43:13;101608.94;;;22.70;52.10
59043;BME280;44826;51.596;5.624;2022-08-02T09:45:40;101597.38;;;22.71;52.69
59043;BME280;44826;51.596;5.624;2022-08-02T09:48:06;101599.44;;;22.80;52.98
59043;BME280;44826;51.596;5.624;2022-08-02T09:50:33;101601.13;;;22.81;52.06
59043;BME280;44826;51.596;5.624;2022-08-02T09:52:58;101593.50;;;22.89;52.08
59043;BME280;44826;51.596;5.624;2022-08-02T09:55:24;101597.47;;;22.97;51.96
59043;BME280;44826;51.596;5.624;2022-08-02T09:57:50;101599.91;;;23.00;52.62
59043;BME280;44826;51.596;5.624;2022-08-02T10:00:15;101591.44;;;23.08;53.22
59043;BME280;44826;51.596;5.624;2022-08-02T10:03:09;101605.63;;;23.21;52.69
59043;BME280;44826;51.596;5.624;2022-08-02T10:05:50;101603.81;;;23.22;51.54
59043;BME280;44826;51.596;5.624;2022-08-02T10:08:16;101598.69;;;23.18;49.14
59043;BME280;44826;51.596;5.624;2022-08-02T10:10:41;101596.97;;;23.17;49.26
59043;BME280;44826;51.596;5.624;2022-08-02T10:13:08;101605.91;;;23.16;45.95
59043;BME280;44826;51.596;5.624;2022-08-02T10:15:34;101600.84;;;23.26;43.51
59043;BME280;44826;51.596;5.624;2022-08-02T10:18:00;101598.94;;;23.28;41.73
59043;BME280;44826;51.596;5.624;2022-08-02T10:20:25;101598.41;;;23.36;43.34
59043;BME280;44826;51.596;5.624;2022-08-02T10:22:52;101589.59;;;23.48;42.54
59043;BME280;44826;51.596;5.624;2022-08-02T10:25:18;101590.44;;;23.62;41.94
59043;BME280;44826;51.596;5.624;2022-08-02T10:27:44;101593.66;;;23.67;41.84
59043;BME280;44826;51.596;5.624;2022-08-02T10:30:10;101584.50;;;23.71;41.36
59043;BME280;44826;51.596;5.624;2022-08-02T10:32:38;101595.00;;;23.86;41.22
59043;BME280;44826;51.596;5.624;2022-08-02T10:35:09;101588.09;;;23.96;40.69
59043;BME280;44826;51.596;5.624;2022-08-02T10:37:37;101584.91;;;24.04;39.87
59043;BME280;44826;51.596;5.624;2022-08-02T10:40:04;101593.00;;;24.02;39.74
59043;BME280;44826;51.596;5.624;2022-08-02T10:42:45;101590.00;;;24.07;39.99
59043;BME280;44826;51.596;5.624;2022-08-02T10:45:12;101584.56;;;24.08;39.37
59043;BME280;44826;51.596;5.624;2022-08-02T10:47:39;101579.25;;;24.08;40.63
59043;BME280;44826;51.596;5.624;2022-08-02T10:50:20;101584.16;;;24.15;39.60
59043;BME280;44826;51.596;5.624;2022-08-02T10:52:45;101583.81;;;24.19;39.30
59043;BME280;44826;51.596;5.624;2022-08-02T10:55:11;101581.28;;;24.18;41.00
59043;BME280;44826;51.596;5.624;2022-08-02T10:57:38;101582.75;;;24.22;40.42
59043;BME280;44826;51.596;5.624;2022-08-02T11:00:12;101580.09;;;24.22;40.77
59043;BME280;44826;51.596;5.624;2022-08-02T11:02:49;101586.38;;;24.21;38.75
59043;BME280;44826;51.596;5.624;2022-08-02T11:05:27;101583.19;;;24.16;39.05
59043;BME280;44826;51.596;5.624;2022-08-02T11:07:52;101583.06;;;24.17;38.29
59043;BME280;44826;51.596;5.624;2022-08-02T11:13:00;101582.81;;;24.33;38.62
59043;BME280;44826;51.596;5.624;2022-08-02T11:15:26;101581.50;;;24.39;38.56
59043;BME280;44826;51.596;5.624;2022-08-02T11:17:55;101580.72;;;24.50;40.34
59043;BME280;44826;51.596;5.624;2022-08-02T11:20:24;101575.81;;;24.57;37.34
59043;BME280;44826;51.596;5.624;2022-08-02T11:22:52;101568.72;;;24.68;39.06
59043;BME280;44826;51.596;5.624;2022-08-02T11:27:54;101570.28;;;24.84;36.96
59043;BME280;44826;51.596;5.624;2022-08-02T11:30:20;101566.16;;;24.80;38.37
59043;BME280;44826;51.596;5.624;2022-08-02T11:32:47;101577.59;;;24.93;37.18
59043;BME280;44826;51.596;5.624;2022-08-02T11:35:12;101571.28;;;24.94;36.22
59043;BME280;44826;51.596;5.624;2022-08-02T11:37:40;101570.31;;;24.95;36.96
59043;BME280;44826;51.596;5.624;2022-08-02T11:40:09;101575.41;;;24.98;37.87
59043;BME280;44826;51.596;5.624;2022-08-02T11:42:37;101576.03;;;25.02;37.64
59043;BME280;44826;51.596;5.624;2022-08-02T11:45:04;101570.31;;;24.95;36.67
59043;BME280;44826;51.596;5.624;2022-08-02T11:47:30;101560.59;;;24.83;36.73
59043;BME280;44826;51.596;5.624;2022-08-02T11:50:08;101564.13;;;24.83;37.31
59043;BME280;44826;51.596;5.624;2022-08-02T11:52:34;101564.22;;;24.82;37.14
59043;BME280;44826;51.596;5.624;2022-08-02T11:55:00;101572.72;;;24.87;38.62
59043;BME280;44826;51.596;5.624;2022-08-02T11:57:26;101563.28;;;24.94;37.75
59043;BME280;44826;51.596;5.624;2022-08-02T11:59:53;101562.25;;;25.08;38.36
59043;BME280;44826;51.596;5.624;2022-08-02T12:02:21;101556.75;;;25.34;38.01
59043;BME280;44826;51.596;5.624;2022-08-02T12:04:57;101558.09;;;25.40;37.66
59043;BME280;44826;51.596;5.624;2022-08-02T12:07:34;101551.59;;;25.55;36.95
59043;BME280;44826;51.596;5.624;2022-08-02T12:10:11;101560.53;;;25.54;35.87
59043;BME280;44826;51.596;5.624;2022-08-02T12:12:50;101551.88;;;25.39;36.00
59043;BME280;44826;51.596;5.624;2022-08-02T12:15:37;101555.28;;;25.30;35.48
59043;BME280;44826;51.596;5.624;2022-08-02T12:18:09;101557.94;;;25.30;34.40
59043;BME280;44826;51.596;5.624;2022-08-02T12:20:54;101559.28;;;25.36;33.92
59043;BME280;44826;51.596;5.624;2022-08-02T12:23:19;101560.63;;;25.41;33.74
59043;BME280;44826;51.596;5.624;2022-08-02T12:25:45;101554.94;;;25.46;35.43
59043;BME280;44826;51.596;5.624;2022-08-02T12:28:17;101551.22;;;25.49;35.32
59043;BME280;44826;51.596;5.624;2022-08-02T12:30:52;101543.09;;;25.50;35.39
59043;BME280;44826;51.596;5.624;2022-08-02T12:33:18;101551.09;;;25.50;34.68
59043;BME280;44826;51.596;5.624;2022-08-02T12:35:43;101553.75;;;25.50;34.41
59043;BME280;44826;51.596;5.624;2022-08-02T12:38:09;101555.69;;;25.48;34.37
59043;BME280;44826;51.596;5.624;2022-08-02T12:40:35;101550.59;;;25.45;34.71
59043;BME280;44826;51.596;5.624;2022-08-02T12:43:03;101538.38;;;25.42;35.18
59043;BME280;44826;51.596;5.624;2022-08-02T12:45:54;101540.19;;;25.42;36.88
59043;BME280;44826;51.596;5.624;2022-08-02T12:48:37;101538.47;;;25.41;37.48
59043;BME280;44826;51.596;5.624;2022-08-02T12:53:50;101536.06;;;25.49;37.48
59043;BME280;44826;51.596;5.624;2022-08-02T12:56:36;101535.84;;;25.52;37.41
59043;BME280;44826;51.596;5.624;2022-08-02T12:59:02;101531.84;;;25.58;37.03
59043;BME280;44826;51.596;5.624;2022-08-02T13:01:27;101537.41;;;25.66;37.73
59043;BME280;44826;51.596;5.624;2022-08-02T13:03:53;101529.44;;;25.66;35.62
59043;BME280;44826;51.596;5.624;2022-08-02T13:06:20;101526.75;;;25.66;36.74
59043;BME280;44826;51.596;5.624;2022-08-02T13:08:45;101525.06;;;25.65;37.80
59043;BME280;44826;51.596;5.624;2022-08-02T13:11:11;101524.19;;;25.65;38.48